sensor_id;sensor_type;location;lat;lon;timestamp;P1;durP1;ratioP1;P2;durP2;ratioP2
17595;SDS011;8916;47.086;15.920;2023-04-15T00:01:51;1.33;;;0.88;;
17595;SDS011;8916;47.086;15.920;2023-04-15T00:04:21;0.60;;;0.60;;
17595;SDS011;8916;47.086;15.920;2023-04-15T00:06:50;1.58;;;0.95;;
17595;SDS011;8916;47.086;15.920;2023-04-15T00:09:20;1.50;;;0.95;;
17595;SDS011;8916;47.086;15.920;2023-04-15T00:11:50;2.25;;;0.85;;
17595;SDS011;8916;47.086;15.920;2023-04-15T00:14:19;1.52;;;0.93;;
17595;SDS011;8916;47.086;15.920;2023-04-15T00:16:48;1.63;;;1.00;;
17595;SDS011;8916;47.086;15.920;2023-04-15T00:19:23;0.80;;;0.80;;
17595;SDS011;8916;47.086;15.920;2023-04-15T00:21:53;1.25;;;0.80;;
17595;SDS011;8916;47.086;15.920;2023-04-15T00:24:22;1.15;;;0.85;;
17595;SDS011;8916;47.086;15.920;2023-04-15T00:26:51;2.28;;;1.00;;
17595;SDS011;8916;47.086;15.920;2023-04-15T00:29:20;0.68;;;0.63;;
17595;SDS011;8916;47.086;15.920;2023-04-15T00:31:50;1.63;;;0.85;;
17595;SDS011;8916;47.086;15.920;2023-04-15T00:34:19;0.60;;;0.50;;
17595;SDS011;8916;47.086;15.920;2023-04-15T00:36:50;0.50;;;0.50;;
17595;SDS011;8916;47.086;15.920;2023-04-15T00:39:21;0.95;;;0.73;;
17595;SDS011;8916;47.086;15.920;2023-04-15T00:41:50;1.65;;;0.98;;
17595;SDS011;8916;47.086;15.920;2023-04-15T00:44:20;0.70;;;0.70;;
17595;SDS011;8916;47.086;15.920;2023-04-15T00:46:50;1.17;;;0.75;;
17595;SDS011;8916;47.086;15.920;2023-04-15T00:49:20;1.52;;;1.08;;
17595;SDS011;8916;47.086;15.920;2023-04-15T00:51:52;0.65;;;0.65;;
17595;SDS011;8916;47.086;15.920;2023-04-15T00:54:21;1.08;;;0.90;;
17595;SDS011;8916;47.086;15.920;2023-04-15T00:56:50;1.15;;;0.60;;
17595;SDS011;8916;47.086;15.920;2023-04-15T00:59:19;0.80;;;0.75;;
17595;SDS011;8916;47.086;15.920;2023-04-15T01:01:49;1.33;;;0.90;;
17595;SDS011;8916;47.086;15.920;2023-04-15T01:04:19;1.48;;;0.95;;
17595;SDS011;8916;47.086;15.920;2023-04-15T01:06:48;2.35;;;0.70;;
17595;SDS011;8916;47.086;15.920;2023-04-15T01:09:19;0.77;;;0.63;;
17595;SDS011;8916;47.086;15.920;2023-04-15T01:11:50;1.23;;;0.90;;
17595;SDS011;8916;47.086;15.920;2023-04-15T01:14:20;1.13;;;0.98;;
17595;SDS011;8916;47.086;15.920;2023-04-15T01:16:49;0.73;;;0.70;;
17595;SDS011;8916;47.086;15.920;2023-04-15T01:19:18;0.55;;;0.50;;
17595;SDS011;8916;47.086;15.920;2023-04-15T01:21:48;0.88;;;0.50;;
17595;SDS011;8916;47.086;15.920;2023-04-15T01:24:18;1.40;;;0.70;;
17595;SDS011;8916;47.086;15.920;2023-04-15T01:26:50;1.25;;;0.70;;
17595;SDS011;8916;47.086;15.920;2023-04-15T01:29:19;1.13;;;0.90;;
17595;SDS011;8916;47.086;15.920;2023-04-15T01:31:50;1.27;;;0.80;;
17595;SDS011;8916;47.086;15.920;2023-04-15T01:34:20;0.98;;;0.95;;
17595;SDS011;8916;47.086;15.920;2023-04-15T01:36:53;0.63;;;0.60;;
17595;SDS011;8916;47.086;15.920;2023-04-15T01:39:22;2.25;;;1.05;;
17595;SDS011;8916;47.086;15.920;2023-04-15T01:41:57;0.82;;;0.65;;
17595;SDS011;8916;47.086;15.920;2023-04-15T01:44:26;1.27;;;0.98;;
17595;SDS011;8916;47.086;15.920;2023-04-15T01:46:55;2.33;;;0.90;;
17595;SDS011;8916;47.086;15.920;2023-04-15T01:49:26;1.38;;;1.15;;
17595;SDS011;8916;47.086;15.920;2023-04-15T01:51:55;0.82;;;0.52;;
17595;SDS011;8916;47.086;15.920;2023-04-15T01:54:24;1.48;;;0.90;;
17595;SDS011;8916;47.086;15.920;2023-04-15T01:56:53;1.98;;;1.23;;
17595;SDS011;8916;47.086;15.920;2023-04-15T01:59:25;1.30;;;0.70;;
17595;SDS011;8916;47.086;15.920;2023-04-15T02:01:54;0.93;;;0.70;;
17595;SDS011;8916;47.086;15.920;2023-04-15T02:04:23;1.40;;;0.82;;
17595;SDS011;8916;47.086;15.920;2023-04-15T02:06:52;0.68;;;0.68;;
17595;SDS011;8916;47.086;15.920;2023-04-15T02:09:21;0.82;;;0.80;;
17595;SDS011;8916;47.086;15.920;2023-04-15T02:11:51;0.98;;;0.85;;
17595;SDS011;8916;47.086;15.920;2023-04-15T02:14:21;0.75;;;0.70;;
17595;SDS011;8916;47.086;15.920;2023-04-15T02:16:51;1.48;;;1.15;;
17595;SDS011;8916;47.086;15.920;2023-04-15T02:19:20;0.80;;;0.75;;
17595;SDS011;8916;47.086;15.920;2023-04-15T02:21:49;1.30;;;1.20;;
17595;SDS011;8916;47.086;15.920;2023-04-15T02:24:18;1.73;;;1.20;;
17595;SDS011;8916;47.086;15.920;2023-04-15T02:26:48;1.48;;;0.98;;
17595;SDS011;8916;47.086;15.920;2023-04-15T02:29:17;2.05;;;1.42;;
17595;SDS011;8916;47.086;15.920;2023-04-15T02:31:46;2.50;;;1.30;;
17595;SDS011;8916;47.086;15.920;2023-04-15T02:34:17;1.77;;;1.35;;
17595;SDS011;8916;47.086;15.920;2023-04-15T02:36:46;0.75;;;0.75;;
17595;SDS011;8916;47.086;15.920;2023-04-15T02:39:16;1.00;;;0.95;;
17595;SDS011;8916;47.086;15.920;2023-04-15T02:41:45;3.30;;;1.33;;
17595;SDS011;8916;47.086;15.920;2023-04-15T02:44:18;2.05;;;1.17;;
17595;SDS011;8916;47.086;15.920;2023-04-15T02:46:49;1.15;;;0.80;;
17595;SDS011;8916;47.086;15.920;2023-04-15T02:49:22;1.60;;;0.90;;
17595;SDS011;8916;47.086;15.920;2023-04-15T02:51:52;1.83;;;0.80;;
17595;SDS011;8916;47.086;15.920;2023-04-15T02:54:21;1.83;;;1.13;;
17595;SDS011;8916;47.086;15.920;2023-04-15T02:56:51;2.67;;;1.17;;
17595;SDS011;8916;47.086;15.920;2023-04-15T02:59:21;2.15;;;1.13;;
17595;SDS011;8916;47.086;15.920;2023-04-15T03:01:51;2.25;;;1.10;;
17595;SDS011;8916;47.086;15.920;2023-04-15T03:04:21;1.38;;;0.95;;
17595;SDS011;8916;47.086;15.920;2023-04-15T03:06:50;1.33;;;1.08;;
17595;SDS011;8916;47.086;15.920;2023-04-15T03:09:19;1.50;;;1.02;;
17595;SDS011;8916;47.086;15.920;2023-04-15T03:11:49;2.35;;;1.27;;
17595;SDS011;8916;47.086;15.920;2023-04-15T03:14:20;1.85;;;1.08;;
17595;SDS011;8916;47.086;15.920;2023-04-15T03:16:49;1.50;;;0.77;;
17595;SDS011;8916;47.086;15.920;2023-04-15T03:19:18;1.00;;;0.88;;
17595;SDS011;8916;47.086;15.920;2023-04-15T03:21:52;2.75;;;1.52;;
17595;SDS011;8916;47.086;15.920;2023-04-15T03:24:21;1.15;;;0.70;;
17595;SDS011;8916;47.086;15.920;2023-04-15T03:26:51;2.78;;;1.48;;
17595;SDS011;8916;47.086;15.920;2023-04-15T03:29:22;3.90;;;1.75;;
17595;SDS011;8916;47.086;15.920;2023-04-15T03:31:52;3.05;;;1.13;;
17595;SDS011;8916;47.086;15.920;2023-04-15T03:34:22;2.85;;;1.50;;
17595;SDS011;8916;47.086;15.920;2023-04-15T03:36:52;2.20;;;1.50;;
17595;SDS011;8916;47.086;15.920;2023-04-15T03:39:21;1.60;;;1.25;;
17595;SDS011;8916;47.086;15.920;2023-04-15T03:41:50;2.10;;;1.23;;
17595;SDS011;8916;47.086;15.920;2023-04-15T03:44:19;1.15;;;1.05;;
17595;SDS011;8916;47.086;15.920;2023-04-15T03:46:48;3.33;;;1.00;;
17595;SDS011;8916;47.086;15.920;2023-04-15T03:49:17;1.67;;;1.30;;
17595;SDS011;8916;47.086;15.920;2023-04-15T03:51:48;1.02;;;0.90;;
17595;SDS011;8916;47.086;15.920;2023-04-15T03:54:17;1.85;;;1.20;;
17595;SDS011;8916;47.086;15.920;2023-04-15T03:56:46;2.50;;;1.60;;
17595;SDS011;8916;47.086;15.920;2023-04-15T03:59:16;2.40;;;1.27;;
17595;SDS011;8916;47.086;15.920;2023-04-15T04:01:45;1.70;;;1.48;;
17595;SDS011;8916;47.086;15.920;2023-04-15T04:04:14;2.20;;;1.65;;
17595;SDS011;8916;47.086;15.920;2023-04-15T04:06:43;2.03;;;1.58;;
17595;SDS011;8916;47.086;15.920;2023-04-15T04:09:14;2.67;;;1.90;;
17595;SDS011;8916;47.086;15.920;2023-04-15T04:11:43;1.33;;;1.20;;
17595;SDS011;8916;47.086;15.920;2023-04-15T04:14:12;3.30;;;1.67;;
17595;SDS011;8916;47.086;15.920;2023-04-15T04:16:42;2.92;;;1.65;;
17595;SDS011;8916;47.086;15.920;2023-04-15T04:19:11;1.77;;;1.40;;
17595;SDS011;8916;47.086;15.920;2023-04-15T04:21:40;2.30;;;1.30;;
17595;SDS011;8916;47.086;15.920;2023-04-15T04:24:10;2.83;;;1.55;;
17595;SDS011;8916;47.086;15.920;2023-04-15T04:26:41;2.22;;;1.20;;
17595;SDS011;8916;47.086;15.920;2023-04-15T04:29:10;2.03;;;1.33;;
17595;SDS011;8916;47.086;15.920;2023-04-15T04:31:39;2.42;;;1.17;;
17595;SDS011;8916;47.086;15.920;2023-04-15T04:34:08;1.70;;;1.17;;
17595;SDS011;8916;47.086;15.920;2023-04-15T04:36:37;3.60;;;1.38;;
17595;SDS011;8916;47.086;15.920;2023-04-15T04:39:06;2.08;;;1.50;;
17595;SDS011;8916;47.086;15.920;2023-04-15T04:41:35;1.40;;;1.30;;
17595;SDS011;8916;47.086;15.920;2023-04-15T04:44:06;1.58;;;1.17;;
17595;SDS011;8916;47.086;15.920;2023-04-15T04:46:35;1.67;;;1.55;;
17595;SDS011;8916;47.086;15.920;2023-04-15T04:49:04;3.72;;;1.30;;
17595;SDS011;8916;47.086;15.920;2023-04-15T04:51:33;1.48;;;1.35;;
17595;SDS011;8916;47.086;15.920;2023-04-15T04:54:02;2.85;;;1.88;;
17595;SDS011;8916;47.086;15.920;2023-04-15T04:56:31;1.38;;;1.10;;
17595;SDS011;8916;47.086;15.920;2023-04-15T04:59:01;1.60;;;1.50;;
17595;SDS011;8916;47.086;15.920;2023-04-15T05:01:32;1.92;;;1.60;;
17595;SDS011;8916;47.086;15.920;2023-04-15T05:04:01;2.97;;;1.55;;
17595;SDS011;8916;47.086;15.920;2023-04-15T05:06:31;2.13;;;1.38;;
17595;SDS011;8916;47.086;15.920;2023-04-15T05:09:02;1.95;;;1.35;;
17595;SDS011;8916;47.086;15.920;2023-04-15T05:11:32;2.30;;;1.40;;
17595;SDS011;8916;47.086;15.920;2023-04-15T05:14:01;2.83;;;1.70;;
17595;SDS011;8916;47.086;15.920;2023-04-15T05:16:31;2.85;;;1.70;;
17595;SDS011;8916;47.086;15.920;2023-04-15T05:19:00;2.05;;;1.20;;
17595;SDS011;8916;47.086;15.920;2023-04-15T05:21:30;3.58;;;1.50;;
17595;SDS011;8916;47.086;15.920;2023-04-15T05:23:59;1.92;;;1.33;;
17595;SDS011;8916;47.086;15.920;2023-04-15T05:26:28;3.50;;;1.40;;
17595;SDS011;8916;47.086;15.920;2023-04-15T05:28:57;3.13;;;1.55;;
17595;SDS011;8916;47.086;15.920;2023-04-15T05:31:27;3.15;;;1.50;;
17595;SDS011;8916;47.086;15.920;2023-04-15T05:33:57;2.40;;;1.88;;
17595;SDS011;8916;47.086;15.920;2023-04-15T05:36:27;2.67;;;2.08;;
17595;SDS011;8916;47.086;15.920;2023-04-15T05:38:56;2.70;;;1.95;;
17595;SDS011;8916;47.086;15.920;2023-04-15T05:41:25;2.63;;;1.70;;
17595;SDS011;8916;47.086;15.920;2023-04-15T05:43:54;3.42;;;1.95;;
17595;SDS011;8916;47.086;15.920;2023-04-15T05:46:23;2.20;;;1.58;;
17595;SDS011;8916;47.086;15.920;2023-04-15T05:48:52;2.10;;;1.73;;
17595;SDS011;8916;47.086;15.920;2023-04-15T05:51:24;4.65;;;1.50;;
17595;SDS011;8916;47.086;15.920;2023-04-15T05:53:53;1.77;;;1.30;;
17595;SDS011;8916;47.086;15.920;2023-04-15T05:56:22;4.00;;;1.23;;
17595;SDS011;8916;47.086;15.920;2023-04-15T05:58:53;1.83;;;1.52;;
17595;SDS011;8916;47.086;15.920;2023-04-15T06:01:22;1.77;;;1.40;;
17595;SDS011;8916;47.086;15.920;2023-04-15T06:03:52;2.03;;;1.48;;
17595;SDS011;8916;47.086;15.920;2023-04-15T06:06:23;2.30;;;1.85;;
17595;SDS011;8916;47.086;15.920;2023-04-15T06:08:54;2.50;;;1.70;;
17595;SDS011;8916;47.086;15.920;2023-04-15T06:11:24;5.28;;;2.50;;
17595;SDS011;8916;47.086;15.920;2023-04-15T06:13:53;4.72;;;2.35;;
17595;SDS011;8916;47.086;15.920;2023-04-15T06:16:22;5.65;;;2.97;;
17595;SDS011;8916;47.086;15.920;2023-04-15T06:18:51;5.50;;;3.00;;
17595;SDS011;8916;47.086;15.920;2023-04-15T06:21:20;4.45;;;2.22;;
17595;SDS011;8916;47.086;15.920;2023-04-15T06:23:51;5.95;;;2.95;;
17595;SDS011;8916;47.086;15.920;2023-04-15T06:26:20;3.60;;;2.28;;
17595;SDS011;8916;47.086;15.920;2023-04-15T06:28:49;2.88;;;1.77;;
17595;SDS011;8916;47.086;15.920;2023-04-15T06:31:19;3.28;;;2.25;;
17595;SDS011;8916;47.086;15.920;2023-04-15T06:33:49;3.35;;;2.30;;
17595;SDS011;8916;47.086;15.920;2023-04-15T06:36:18;3.92;;;2.40;;
17595;SDS011;8916;47.086;15.920;2023-04-15T06:38:48;4.43;;;2.92;;
17595;SDS011;8916;47.086;15.920;2023-04-15T06:41:18;6.18;;;3.55;;
17595;SDS011;8916;47.086;15.920;2023-04-15T06:43:47;4.75;;;2.90;;
17595;SDS011;8916;47.086;15.920;2023-04-15T06:46:17;5.53;;;2.15;;
17595;SDS011;8916;47.086;15.920;2023-04-15T06:48:46;2.97;;;1.90;;
17595;SDS011;8916;47.086;15.920;2023-04-15T06:51:15;3.40;;;1.95;;
17595;SDS011;8916;47.086;15.920;2023-04-15T06:53:44;2.00;;;1.65;;
17595;SDS011;8916;47.086;15.920;2023-04-15T06:56:13;2.70;;;1.90;;
17595;SDS011;8916;47.086;15.920;2023-04-15T06:58:44;2.25;;;1.58;;
17595;SDS011;8916;47.086;15.920;2023-04-15T07:01:13;1.48;;;1.10;;
17595;SDS011;8916;47.086;15.920;2023-04-15T07:03:42;1.67;;;1.13;;
17595;SDS011;8916;47.086;15.920;2023-04-15T07:06:11;2.35;;;1.40;;
17595;SDS011;8916;47.086;15.920;2023-04-15T07:08:40;4.63;;;1.50;;
17595;SDS011;8916;47.086;15.920;2023-04-15T07:11:09;1.33;;;1.20;;
17595;SDS011;8916;47.086;15.920;2023-04-15T07:13:39;3.40;;;1.77;;
17595;SDS011;8916;47.086;15.920;2023-04-15T07:16:09;2.15;;;1.70;;
17595;SDS011;8916;47.086;15.920;2023-04-15T07:18:39;2.50;;;2.00;;
17595;SDS011;8916;47.086;15.920;2023-04-15T07:21:08;2.92;;;2.00;;
17595;SDS011;8916;47.086;15.920;2023-04-15T07:23:38;3.08;;;2.10;;
17595;SDS011;8916;47.086;15.920;2023-04-15T07:26:08;5.13;;;1.98;;
17595;SDS011;8916;47.086;15.920;2023-04-15T07:28:38;2.50;;;1.50;;
17595;SDS011;8916;47.086;15.920;2023-04-15T07:31:07;2.60;;;1.98;;
17595;SDS011;8916;47.086;15.920;2023-04-15T07:33:38;1.92;;;1.65;;
17595;SDS011;8916;47.086;15.920;2023-04-15T07:36:08;1.77;;;1.52;;
17595;SDS011;8916;47.086;15.920;2023-04-15T07:38:38;2.13;;;1.50;;
17595;SDS011;8916;47.086;15.920;2023-04-15T07:41:07;2.72;;;1.50;;
17595;SDS011;8916;47.086;15.920;2023-04-15T07:43:36;3.78;;;1.80;;
17595;SDS011;8916;47.086;15.920;2023-04-15T07:46:05;2.92;;;1.70;;
17595;SDS011;8916;47.086;15.920;2023-04-15T07:48:36;2.40;;;1.20;;
17595;SDS011;8916;47.086;15.920;2023-04-15T07:51:05;2.35;;;1.70;;
17595;SDS011;8916;47.086;15.920;2023-04-15T07:53:34;2.88;;;1.65;;
17595;SDS011;8916;47.086;15.920;2023-04-15T07:56:04;3.00;;;1.33;;
17595;SDS011;8916;47.086;15.920;2023-04-15T07:58:34;2.97;;;1.90;;
17595;SDS011;8916;47.086;15.920;2023-04-15T08:01:03;1.15;;;1.05;;
17595;SDS011;8916;47.086;15.920;2023-04-15T08:03:33;3.17;;;1.45;;
17595;SDS011;8916;47.086;15.920;2023-04-15T08:06:04;3.50;;;1.63;;
17595;SDS011;8916;47.086;15.920;2023-04-15T08:08:34;1.33;;;1.23;;
17595;SDS011;8916;47.086;15.920;2023-04-15T08:11:03;2.05;;;1.30;;
17595;SDS011;8916;47.086;15.920;2023-04-15T08:13:33;4.07;;;1.88;;
17595;SDS011;8916;47.086;15.920;2023-04-15T08:16:18;2.35;;;1.23;;
17595;SDS011;8916;47.086;15.920;2023-04-15T08:18:49;2.45;;;1.52;;
17595;SDS011;8916;47.086;15.920;2023-04-15T08:21:21;2.83;;;1.23;;
17595;SDS011;8916;47.086;15.920;2023-04-15T08:23:51;2.30;;;1.30;;
17595;SDS011;8916;47.086;15.920;2023-04-15T08:26:22;2.20;;;1.40;;
17595;SDS011;8916;47.086;15.920;2023-04-15T08:28:52;1.80;;;1.25;;
17595;SDS011;8916;47.086;15.920;2023-04-15T08:31:26;4.45;;;1.70;;
17595;SDS011;8916;47.086;15.920;2023-04-15T08:33:57;2.17;;;1.60;;
17595;SDS011;8916;47.086;15.920;2023-04-15T08:36:27;1.90;;;1.33;;
17595;SDS011;8916;47.086;15.920;2023-04-15T08:38:56;1.35;;;1.20;;
17595;SDS011;8916;47.086;15.920;2023-04-15T08:41:28;2.25;;;1.13;;
17595;SDS011;8916;47.086;15.920;2023-04-15T08:44:07;2.00;;;1.40;;
17595;SDS011;8916;47.086;15.920;2023-04-15T08:46:37;1.50;;;1.35;;
17595;SDS011;8916;47.086;15.920;2023-04-15T08:49:09;1.80;;;1.33;;
17595;SDS011;8916;47.086;15.920;2023-04-15T08:51:41;2.38;;;0.90;;
17595;SDS011;8916;47.086;15.920;2023-04-15T08:54:12;1.92;;;1.15;;
17595;SDS011;8916;47.086;15.920;2023-04-15T08:56:41;1.95;;;1.30;;
17595;SDS011;8916;47.086;15.920;2023-04-15T08:59:11;1.17;;;0.95;;
17595;SDS011;8916;47.086;15.920;2023-04-15T09:01:41;3.00;;;1.25;;
17595;SDS011;8916;47.086;15.920;2023-04-15T09:04:10;1.45;;;1.20;;
17595;SDS011;8916;47.086;15.920;2023-04-15T09:06:41;3.25;;;1.30;;
17595;SDS011;8916;47.086;15.920;2023-04-15T09:09:11;2.17;;;1.00;;
17595;SDS011;8916;47.086;15.920;2023-04-15T09:11:41;2.20;;;1.25;;
17595;SDS011;8916;47.086;15.920;2023-04-15T09:14:10;1.70;;;0.98;;
17595;SDS011;8916;47.086;15.920;2023-04-15T09:16:55;1.60;;;1.08;;
17595;SDS011;8916;47.086;15.920;2023-04-15T09:19:25;1.35;;;1.10;;
17595;SDS011;8916;47.086;15.920;2023-04-15T09:21:56;1.77;;;1.45;;
17595;SDS011;8916;47.086;15.920;2023-04-15T09:24:32;1.63;;;1.10;;
17595;SDS011;8916;47.086;15.920;2023-04-15T09:27:05;3.47;;;1.42;;
17595;SDS011;8916;47.086;15.920;2023-04-15T09:29:35;1.60;;;1.00;;
17595;SDS011;8916;47.086;15.920;2023-04-15T09:32:11;3.22;;;1.30;;
17595;SDS011;8916;47.086;15.920;2023-04-15T09:34:41;1.42;;;1.08;;
17595;SDS011;8916;47.086;15.920;2023-04-15T09:37:12;1.33;;;1.17;;
17595;SDS011;8916;47.086;15.920;2023-04-15T09:39:58;1.90;;;1.42;;
17595;SDS011;8916;47.086;15.920;2023-04-15T09:42:27;1.67;;;1.30;;
17595;SDS011;8916;47.086;15.920;2023-04-15T09:45:06;1.20;;;1.10;;
17595;SDS011;8916;47.086;15.920;2023-04-15T09:47:36;1.45;;;1.20;;
17595;SDS011;8916;47.086;15.920;2023-04-15T09:50:06;1.25;;;1.08;;
17595;SDS011;8916;47.086;15.920;2023-04-15T09:52:39;1.48;;;1.08;;
17595;SDS011;8916;47.086;15.920;2023-04-15T09:55:10;1.73;;;0.98;;
17595;SDS011;8916;47.086;15.920;2023-04-15T09:57:42;1.52;;;1.20;;
17595;SDS011;8916;47.086;15.920;2023-04-15T10:00:13;1.27;;;1.10;;
17595;SDS011;8916;47.086;15.920;2023-04-15T10:02:44;1.13;;;1.02;;
17595;SDS011;8916;47.086;15.920;2023-04-15T10:05:16;1.42;;;1.15;;
17595;SDS011;8916;47.086;15.920;2023-04-15T10:07:48;1.17;;;1.08;;
17595;SDS011;8916;47.086;15.920;2023-04-15T10:10:17;1.55;;;1.40;;
17595;SDS011;8916;47.086;15.920;2023-04-15T10:12:47;1.67;;;1.27;;
17595;SDS011;8916;47.086;15.920;2023-04-15T10:15:19;2.55;;;1.30;;
17595;SDS011;8916;47.086;15.920;2023-04-15T10:17:49;1.38;;;1.10;;
17595;SDS011;8916;47.086;15.920;2023-04-15T10:20:20;1.88;;;1.60;;
17595;SDS011;8916;47.086;15.920;2023-04-15T10:22:52;2.38;;;1.50;;
17595;SDS011;8916;47.086;15.920;2023-04-15T10:25:21;1.45;;;1.33;;
17595;SDS011;8916;47.086;15.920;2023-04-15T10:27:53;1.38;;;1.00;;
17595;SDS011;8916;47.086;15.920;2023-04-15T10:30:23;2.05;;;1.45;;
17595;SDS011;8916;47.086;15.920;2023-04-15T10:32:52;2.10;;;1.35;;
17595;SDS011;8916;47.086;15.920;2023-04-15T10:35:23;2.65;;;1.58;;
17595;SDS011;8916;47.086;15.920;2023-04-15T10:37:54;1.67;;;1.40;;
17595;SDS011;8916;47.086;15.920;2023-04-15T10:40:24;1.90;;;1.60;;
17595;SDS011;8916;47.086;15.920;2023-04-15T10:42:59;2.22;;;1.45;;
17595;SDS011;8916;47.086;15.920;2023-04-15T10:45:31;1.20;;;1.10;;
17595;SDS011;8916;47.086;15.920;2023-04-15T10:48:02;1.75;;;1.20;;
17595;SDS011;8916;47.086;15.920;2023-04-15T10:50:35;2.63;;;1.85;;
17595;SDS011;8916;47.086;15.920;2023-04-15T10:53:07;2.28;;;1.40;;
17595;SDS011;8916;47.086;15.920;2023-04-15T10:55:38;1.98;;;1.58;;
17595;SDS011;8916;47.086;15.920;2023-04-15T10:58:07;1.77;;;1.42;;
17595;SDS011;8916;47.086;15.920;2023-04-15T11:00:37;2.28;;;1.67;;
17595;SDS011;8916;47.086;15.920;2023-04-15T11:03:07;2.17;;;1.35;;
17595;SDS011;8916;47.086;15.920;2023-04-15T11:05:50;1.88;;;1.58;;
17595;SDS011;8916;47.086;15.920;2023-04-15T11:08:23;1.83;;;1.35;;
17595;SDS011;8916;47.086;15.920;2023-04-15T11:14:36;2.45;;;1.58;;
17595;SDS011;8916;47.086;15.920;2023-04-15T11:17:09;2.20;;;1.60;;
17595;SDS011;8916;47.086;15.920;2023-04-15T11:19:38;2.40;;;1.65;;
17595;SDS011;8916;47.086;15.920;2023-04-15T11:22:08;1.95;;;1.40;;
17595;SDS011;8916;47.086;15.920;2023-04-15T11:24:47;2.40;;;1.58;;
17595;SDS011;8916;47.086;15.920;2023-04-15T11:27:20;2.17;;;1.40;;
17595;SDS011;8916;47.086;15.920;2023-04-15T11:29:49;1.13;;;0.90;;
17595;SDS011;8916;47.086;15.920;2023-04-15T11:32:21;1.15;;;0.90;;
17595;SDS011;8916;47.086;15.920;2023-04-15T11:34:50;1.95;;;1.27;;
17595;SDS011;8916;47.086;15.920;2023-04-15T11:37:26;1.65;;;1.30;;
17595;SDS011;8916;47.086;15.920;2023-04-15T11:39:58;1.58;;;1.15;;
17595;SDS011;8916;47.086;15.920;2023-04-15T11:42:29;1.13;;;0.98;;
17595;SDS011;8916;47.086;15.920;2023-04-15T11:45:15;1.73;;;1.00;;
17595;SDS011;8916;47.086;15.920;2023-04-15T11:47:44;1.13;;;0.90;;
17595;SDS011;8916;47.086;15.920;2023-04-15T11:50:14;2.30;;;1.10;;
17595;SDS011;8916;47.086;15.920;2023-04-15T11:52:54;1.85;;;1.25;;
17595;SDS011;8916;47.086;15.920;2023-04-15T11:55:25;1.58;;;0.95;;
17595;SDS011;8916;47.086;15.920;2023-04-15T11:58:08;1.48;;;1.27;;
17595;SDS011;8916;47.086;15.920;2023-04-15T12:00:45;2.38;;;1.30;;
17595;SDS011;8916;47.086;15.920;2023-04-15T12:03:16;1.33;;;1.00;;
17595;SDS011;8916;47.086;15.920;2023-04-15T12:06:02;1.48;;;0.90;;
17595;SDS011;8916;47.086;15.920;2023-04-15T12:08:49;1.00;;;0.90;;
17595;SDS011;8916;47.086;15.920;2023-04-15T12:11:39;2.33;;;1.10;;
17595;SDS011;8916;47.086;15.920;2023-04-15T12:14:12;2.85;;;1.02;;
17595;SDS011;8916;47.086;15.920;2023-04-15T12:16:49;1.20;;;1.00;;
17595;SDS011;8916;47.086;15.920;2023-04-15T12:19:25;1.90;;;1.05;;
17595;SDS011;8916;47.086;15.920;2023-04-15T12:21:59;1.20;;;1.10;;
17595;SDS011;8916;47.086;15.920;2023-04-15T12:24:30;0.90;;;0.82;;
17595;SDS011;8916;47.086;15.920;2023-04-15T12:27:02;1.35;;;1.00;;
17595;SDS011;8916;47.086;15.920;2023-04-15T12:29:33;3.13;;;1.35;;
17595;SDS011;8916;47.086;15.920;2023-04-15T12:32:05;1.55;;;0.80;;
17595;SDS011;8916;47.086;15.920;2023-04-15T12:34:37;1.55;;;0.93;;
17595;SDS011;8916;47.086;15.920;2023-04-15T12:37:08;2.03;;;1.60;;
17595;SDS011;8916;47.086;15.920;2023-04-15T12:39:40;1.27;;;0.98;;
17595;SDS011;8916;47.086;15.920;2023-04-15T12:42:13;1.48;;;1.00;;
17595;SDS011;8916;47.086;15.920;2023-04-15T12:44:45;1.95;;;1.13;;
17595;SDS011;8916;47.086;15.920;2023-04-15T12:47:14;1.13;;;0.90;;
17595;SDS011;8916;47.086;15.920;2023-04-15T12:49:44;1.20;;;1.00;;
17595;SDS011;8916;47.086;15.920;2023-04-15T12:52:13;2.35;;;0.75;;
17595;SDS011;8916;47.086;15.920;2023-04-15T12:54:42;0.90;;;0.73;;
17595;SDS011;8916;47.086;15.920;2023-04-15T12:57:15;0.90;;;0.90;;
17595;SDS011;8916;47.086;15.920;2023-04-15T12:59:44;1.67;;;0.90;;
17595;SDS011;8916;47.086;15.920;2023-04-15T13:02:13;0.90;;;0.80;;
17595;SDS011;8916;47.086;15.920;2023-04-15T13:04:43;0.98;;;0.90;;
17595;SDS011;8916;47.086;15.920;2023-04-15T13:07:12;1.75;;;0.90;;
17595;SDS011;8916;47.086;15.920;2023-04-15T13:09:41;1.33;;;0.70;;
17595;SDS011;8916;47.086;15.920;2023-04-15T13:12:10;2.42;;;0.98;;
17595;SDS011;8916;47.086;15.920;2023-04-15T13:14:42;2.15;;;1.23;;
17595;SDS011;8916;47.086;15.920;2023-04-15T13:17:11;0.93;;;0.68;;
17595;SDS011;8916;47.086;15.920;2023-04-15T13:19:40;1.33;;;0.82;;
17595;SDS011;8916;47.086;15.920;2023-04-15T13:22:09;0.75;;;0.57;;
17595;SDS011;8916;47.086;15.920;2023-04-15T13:24:38;0.90;;;0.80;;
17595;SDS011;8916;47.086;15.920;2023-04-15T13:27:08;1.05;;;0.95;;
17595;SDS011;8916;47.086;15.920;2023-04-15T13:29:38;0.57;;;0.35;;
17595;SDS011;8916;47.086;15.920;2023-04-15T13:32:07;0.88;;;0.57;;
17595;SDS011;8916;47.086;15.920;2023-04-15T13:34:36;0.85;;;0.50;;
17595;SDS011;8916;47.086;15.920;2023-04-15T13:37:05;1.65;;;1.15;;
17595;SDS011;8916;47.086;15.920;2023-04-15T13:39:35;0.90;;;0.80;;
17595;SDS011;8916;47.086;15.920;2023-04-15T13:42:04;1.42;;;0.88;;
17595;SDS011;8916;47.086;15.920;2023-04-15T13:44:33;2.63;;;1.13;;
17595;SDS011;8916;47.086;15.920;2023-04-15T13:47:03;2.08;;;1.60;;
17595;SDS011;8916;47.086;15.920;2023-04-15T13:49:32;0.95;;;0.85;;
17595;SDS011;8916;47.086;15.920;2023-04-15T13:52:02;0.60;;;0.60;;
17595;SDS011;8916;47.086;15.920;2023-04-15T13:54:31;1.98;;;0.90;;
17595;SDS011;8916;47.086;15.920;2023-04-15T13:57:04;2.05;;;0.90;;
17595;SDS011;8916;47.086;15.920;2023-04-15T13:59:33;2.33;;;1.40;;
17595;SDS011;8916;47.086;15.920;2023-04-15T14:02:04;1.55;;;1.33;;
17595;SDS011;8916;47.086;15.920;2023-04-15T14:04:33;1.77;;;1.27;;
17595;SDS011;8916;47.086;15.920;2023-04-15T14:07:02;2.20;;;1.60;;
17595;SDS011;8916;47.086;15.920;2023-04-15T14:09:32;3.03;;;1.50;;
17595;SDS011;8916;47.086;15.920;2023-04-15T14:12:01;1.65;;;1.25;;
17595;SDS011;8916;47.086;15.920;2023-04-15T14:14:31;2.20;;;1.25;;
17595;SDS011;8916;47.086;15.920;2023-04-15T14:17:01;1.83;;;1.30;;
17595;SDS011;8916;47.086;15.920;2023-04-15T14:19:32;1.50;;;1.20;;
17595;SDS011;8916;47.086;15.920;2023-04-15T14:22:02;4.25;;;1.20;;
17595;SDS011;8916;47.086;15.920;2023-04-15T14:24:31;1.15;;;0.88;;
17595;SDS011;8916;47.086;15.920;2023-04-15T14:27:00;1.77;;;1.33;;
17595;SDS011;8916;47.086;15.920;2023-04-15T14:29:29;1.75;;;1.10;;
17595;SDS011;8916;47.086;15.920;2023-04-15T14:31:58;1.30;;;1.20;;
17595;SDS011;8916;47.086;15.920;2023-04-15T14:34:40;1.83;;;1.10;;
17595;SDS011;8916;47.086;15.920;2023-04-15T14:37:09;1.17;;;0.95;;
17595;SDS011;8916;47.086;15.920;2023-04-15T14:39:38;1.35;;;0.90;;
17595;SDS011;8916;47.086;15.920;2023-04-15T14:42:07;1.42;;;1.10;;
17595;SDS011;8916;47.086;15.920;2023-04-15T14:44:36;1.92;;;1.25;;
17595;SDS011;8916;47.086;15.920;2023-04-15T14:47:05;1.98;;;1.30;;
17595;SDS011;8916;47.086;15.920;2023-04-15T14:49:34;2.20;;;1.50;;
17595;SDS011;8916;47.086;15.920;2023-04-15T14:52:05;1.10;;;0.90;;
17595;SDS011;8916;47.086;15.920;2023-04-15T14:54:34;1.63;;;1.13;;
17595;SDS011;8916;47.086;15.920;2023-04-15T14:57:03;1.92;;;1.35;;
17595;SDS011;8916;47.086;15.920;2023-04-15T14:59:32;1.42;;;1.02;;
17595;SDS011;8916;47.086;15.920;2023-04-15T15:02:01;2.47;;;1.27;;
17595;SDS011;8916;47.086;15.920;2023-04-15T15:04:31;2.00;;;1.38;;
17595;SDS011;8916;47.086;15.920;2023-04-15T15:07:02;2.63;;;1.48;;
17595;SDS011;8916;47.086;15.920;2023-04-15T15:09:32;2.58;;;1.60;;
17595;SDS011;8916;47.086;15.920;2023-04-15T15:12:02;2.38;;;1.42;;